Time;durP1;ratioP1;P1;durP2;ratioP2;P2;SDS_P1;SDS_P2;PMS_P1;PMS_P2;Temp;Humidity;BMP_temperature;BMP_pressure;BME280_temperature;BME280_humidity;BME280_pressure;Samples;Min_cycle;Max_cycle;Signal;HPM_P1;HPM_P2
2024/01/06 00:00:34;;;;;;;15.73;10.20;;;8.20;88.10;;;;;;4999642;28;20034;-63
2024/01/06 00:03:00;;;;;;;14.27;9.40;;;8.30;88.20;;;;;;5003485;28;20033;-63
2024/01/06 00:05:26;;;;;;;12.68;9.85;;;8.20;88.20;;;;;;4998218;28;20041;-63
2024/01/06 00:07:51;;;;;;;12.07;9.50;;;8.20;88.30;;;;;;5006692;28;20089;-63
2024/01/06 00:10:17;;;;;;;12.63;9.65;;;8.20;88.30;;;;;;4996774;28;20038;-63
2024/01/06 00:12:43;;;;;;;16.02;9.32;;;8.10;88.40;;;;;;5004376;28;20034;-64
2024/01/06 00:15:08;;;;;;;14.10;9.38;;;8.10;88.50;;;;;;5002446;28;20112;-63
2024/01/06 00:17:34;;;;;;;13.38;9.73;;;8.10;88.60;;;;;;5007386;28;20029;-64
2024/01/06 00:20:02;;;;;;;15.15;9.77;;;8.10;88.80;;;;;;4998115;28;20046;-63
2024/01/06 00:22:27;;;;;;;13.38;9.32;;;8.00;88.80;;;;;;4996999;28;20038;-64
2024/01/06 00:24:53;;;;;;;13.05;9.23;;;8.00;88.80;;;;;;5008352;28;20497;-64
2024/01/06 00:27:18;;;;;;;11.88;9.40;;;8.00;88.90;;;;;;4998753;28;20034;-63
2024/01/06 00:29:44;;;;;;;13.07;8.93;;;8.00;89.00;;;;;;5004945;28;20105;-63
2024/01/06 00:32:10;;;;;;;12.13;9.02;;;7.90;89.10;;;;;;4998530;28;20046;-63
2024/01/06 00:34:35;;;;;;;12.02;9.18;;;7.90;89.90;;;;;;4997073;28;20036;-63
2024/01/06 00:37:01;;;;;;;11.27;8.73;;;7.90;89.20;;;;;;5008915;28;20050;-63
2024/01/06 00:39:26;;;;;;;12.48;9.20;;;7.90;89.30;;;;;;4999762;28;20047;-62
2024/01/06 00:41:52;;;;;;;11.43;8.68;;;7.80;89.30;;;;;;5000008;28;20026;-63
2024/01/06 00:44:17;;;;;;;12.50;9.32;;;7.80;89.50;;;;;;5002213;28;20088;-63
2024/01/06 00:46:43;;;;;;;11.63;8.60;;;7.80;89.50;;;;;;5008783;28;20033;-64
2024/01/06 00:49:09;;;;;;;12.80;9.50;;;7.80;89.60;;;;;;5009417;28;20121;-63
2024/01/06 00:51:34;;;;;;;14.07;9.55;;;7.80;89.70;;;;;;5004628;28;20034;-63
2024/01/06 00:54:00;;;;;;;11.65;8.88;;;7.70;89.90;;;;;;5001140;28;20402;-63
2024/01/06 00:56:27;;;;;;;12.77;9.90;;;7.70;89.90;;;;;;5005279;28;20026;-63
2024/01/06 00:58:52;;;;;;;11.38;9.50;;;7.70;89.90;;;;;;5006082;28;20038;-63
2024/01/06 01:01:18;;;;;;;12.35;9.63;;;7.70;90.00;;;;;;5005647;28;20034;-63
2024/01/06 01:03:44;;;;;;;12.52;9.63;;;7.60;90.00;;;;;;5009904;28;20116;-63
2024/01/06 01:06:09;;;;;;;12.60;8.93;;;7.60;90.00;;;;;;5003741;28;20033;-63
2024/01/06 01:08:35;;;;;;;10.77;9.00;;;7.60;90.10;;;;;;5004917;28;20461;-63
2024/01/06 01:11:00;;;;;;;11.38;8.40;;;7.60;90.10;;;;;;4999350;28;20240;-63
2024/01/06 01:13:26;;;;;;;10.90;8.15;;;7.50;90.20;;;;;;5004784;28;20034;-64
2024/01/06 01:15:51;;;;;;;12.32;8.30;;;7.50;90.20;;;;;;5006764;28;20025;-63
2024/01/06 01:18:17;;;;;;;11.18;8.55;;;7.50;90.30;;;;;;5009670;28;20033;-64
2024/01/06 01:20:43;;;;;;;11.13;8.50;;;7.50;90.30;;;;;;5005980;28;20022;-63
2024/01/06 01:23:08;;;;;;;13.68;8.10;;;7.50;90.30;;;;;;5005093;28;20026;-63
2024/01/06 01:25:34;;;;;;;12.15;8.45;;;7.50;90.40;;;;;;5008387;28;20035;-63
2024/01/06 01:27:59;;;;;;;10.85;7.68;;;7.50;90.40;;;;;;5007567;28;20038;-63
2024/01/06 01:30:25;;;;;;;10.50;7.70;;;7.50;90.40;;;;;;5004931;28;20034;-63
2024/01/06 01:32:51;;;;;;;9.32;6.88;;;7.40;90.30;;;;;;5001697;28;20437;-63
2024/01/06 01:35:16;;;;;;;11.82;7.57;;;7.40;90.30;;;;;;5003424;28;20137;-63
2024/01/06 01:37:42;;;;;;;9.65;7.63;;;7.40;90.30;;;;;;5002030;28;20117;-64
2024/01/06 01:40:08;;;;;;;9.93;7.85;;;7.40;90.30;;;;;;5008647;28;20430;-63
2024/01/06 01:42:34;;;;;;;16.85;9.02;;;7.30;90.20;;;;;;5000409;28;20113;-63
2024/01/06 01:44:59;;;;;;;11.30;7.95;;;7.30;90.20;;;;;;5007363;28;20030;-64
2024/01/06 01:47:25;;;;;;;15.60;8.27;;;7.30;90.20;;;;;;5001078;28;20030;-63
2024/01/06 01:49:56;;;;;;;12.43;8.00;;;7.30;90.20;;;;;;5000370;28;20031;-63
2024/01/06 01:52:22;;;;;;;10.82;7.85;;;7.30;90.20;;;;;;5000978;28;20036;-63
2024/01/06 01:54:47;;;;;;;12.93;7.47;;;7.20;90.20;;;;;;5006525;28;20509;-62
2024/01/06 01:57:15;;;;;;;9.57;5.90;;;7.20;90.20;;;;;;5004234;28;20032;-64
2024/01/06 01:59:41;;;;;;;10.38;6.05;;;7.20;90.20;;;;;;4999771;28;20023;-63
2024/01/06 02:02:08;;;;;;;11.20;6.20;;;7.20;90.20;;;;;;5005160;28;20041;-64
2024/01/06 02:04:33;;;;;;;8.07;5.40;;;7.20;90.10;;;;;;5008012;28;20429;-64
2024/01/06 02:07:02;;;;;;;7.05;4.80;;;7.20;90.10;;;;;;5002383;28;20026;-64
2024/01/06 02:09:30;;;;;;;5.65;4.80;;;7.20;90.00;;;;;;5005591;28;20033;-63
2024/01/06 02:11:58;;;;;;;6.32;4.38;;;7.20;90.40;;;;;;5010694;28;20083;-64
2024/01/06 02:14:27;;;;;;;7.93;4.68;;;7.20;90.00;;;;;;5004027;28;20536;-64
2024/01/06 02:16:52;;;;;;;6.90;4.38;;;7.20;90.00;;;;;;4996885;28;20045;-63
2024/01/06 02:19:18;;;;;;;5.95;4.40;;;7.20;90.00;;;;;;5002677;28;20105;-63
2024/01/06 02:21:47;;;;;;;7.82;4.15;;;7.20;90.00;;;;;;5007175;28;20138;-64
2024/01/06 02:24:13;;;;;;;7.45;3.78;;;7.30;90.00;;;;;;5005139;28;20026;-63
2024/01/06 02:26:39;;;;;;;6.32;3.25;;;7.20;89.70;;;;;;5000598;28;20039;-63
2024/01/06 02:29:04;;;;;;;4.43;3.15;;;7.30;89.60;;;;;;5009494;28;20057;-64
2024/01/06 02:31:30;;;;;;;7.32;2.95;;;7.30;89.50;;;;;;4996838;28;20060;-64
2024/01/06 02:33:55;;;;;;;7.43;2.88;;;7.30;89.50;;;;;;5007127;28;20034;-64
2024/01/06 02:36:21;;;;;;;4.07;2.65;;;7.20;89.50;;;;;;5003887;28;20129;-64
2024/01/06 02:38:46;;;;;;;5.20;2.60;;;7.20;89.50;;;;;;4999208;28;20034;-63
2024/01/06 02:41:12;;;;;;;4.30;2.60;;;7.20;89.50;;;;;;4998906;28;20045;-63
2024/01/06 02:43:37;;;;;;;4.38;2.72;;;7.10;89.40;;;;;;4999514;28;20568;-63
2024/01/06 02:46:03;;;;;;;4.60;2.20;;;7.20;89.50;;;;;;5007757;28;20037;-63
2024/01/06 02:48:30;;;;;;;3.72;1.95;;;7.10;89.50;;;;;;5006021;28;20088;-64
2024/01/06 02:50:56;;;;;;;3.80;2.00;;;7.10;89.20;;;;;;5003200;28;20103;-63
2024/01/06 02:53:22;;;;;;;4.30;2.10;;;7.10;88.70;;;;;;5002969;28;20466;-63
2024/01/06 02:55:47;;;;;;;3.53;1.77;;;7.00;88.60;;;;;;4997051;28;20445;-63
2024/01/06 02:58:13;;;;;;;3.67;1.55;;;7.00;88.60;;;;;;5003750;28;20030;-63
2024/01/06 03:00:38;;;;;;;4.75;1.73;;;6.90;89.50;;;;;;5005453;28;20034;-64
2024/01/06 03:03:04;;;;;;;3.88;1.77;;;6.90;88.60;;;;;;5005400;28;20528;-63
2024/01/06 03:05:30;;;;;;;4.63;1.95;;;6.90;88.50;;;;;;4997281;28;20045;-62
2024/01/06 03:07:55;;;;;;;4.13;2.10;;;6.90;88.50;;;;;;4999998;28;20197;-63
2024/01/06 03:10:21;;;;;;;3.30;1.85;;;6.90;88.60;;;;;;5002009;28;20100;-63
2024/01/06 03:12:46;;;;;;;3.00;1.77;;;6.90;88.60;;;;;;5007574;28;20030;-63
2024/01/06 03:15:12;;;;;;;5.07;2.28;;;6.80;88.70;;;;;;5001054;28;20120;-62
2024/01/06 03:17:37;;;;;;;3.97;2.05;;;6.80;88.90;;;;;;4996321;28;20061;-63
2024/01/06 03:20:04;;;;;;;3.95;2.30;;;6.90;88.80;;;;;;5004613;28;20092;-63
2024/01/06 03:22:29;;;;;;;4.63;1.92;;;6.90;88.70;;;;;;5002948;28;20099;-63
2024/01/06 03:24:55;;;;;;;3.78;2.03;;;6.90;88.70;;;;;;5006136;28;20037;-63
2024/01/06 03:27:21;;;;;;;2.92;1.90;;;6.90;88.80;;;;;;5004555;28;20033;-63
2024/01/06 03:29:46;;;;;;;2.95;2.00;;;6.80;88.80;;;;;;4997819;28;20029;-63
2024/01/06 03:32:12;;;;;;;5.07;2.50;;;6.80;88.90;;;;;;4995929;28;20584;-62
2024/01/06 03:34:37;;;;;;;6.32;2.50;;;6.90;89.00;;;;;;5004365;28;20031;-63
2024/01/06 03:37:03;;;;;;;5.47;2.58;;;6.90;89.90;;;;;;5009024;28;20056;-64
2024/01/06 03:39:29;;;;;;;4.95;2.28;;;6.90;89.10;;;;;;5000105;28;20474;-63
2024/01/06 03:41:54;;;;;;;3.20;1.67;;;6.80;88.90;;;;;;4999827;28;20393;-63
2024/01/06 03:44:20;;;;;;;4.13;1.83;;;6.80;88.60;;;;;;5004903;28;20036;-63
2024/01/06 03:46:45;;;;;;;3.97;2.17;;;6.70;88.40;;;;;;4999520;28;20104;-63
2024/01/06 03:49:11;;;;;;;2.92;2.10;;;6.70;88.60;;;;;;5007179;28;20034;-63
2024/01/06 03:51:37;;;;;;;3.97;1.92;;;6.70;88.80;;;;;;5003351;28;20035;-63
2024/01/06 03:54:02;;;;;;;4.40;1.50;;;6.60;88.70;;;;;;5007401;28;20034;-62
2024/01/06 03:56:28;;;;;;;3.72;1.67;;;6.60;88.40;;;;;;5000910;28;20060;-63
2024/01/06 03:58:53;;;;;;;4.80;1.80;;;6.50;88.20;;;;;;4997783;28;20029;-62
2024/01/06 04:01:20;;;;;;;4.82;1.50;;;6.50;88.50;;;;;;4997293;28;20037;-63
2024/01/06 04:03:45;;;;;;;1.73;1.42;;;6.50;88.70;;;;;;4998391;28;20037;-62
2024/01/06 04:06:11;;;;;;;5.07;1.42;;;6.40;88.80;;;;;;5002151;28;20038;-63
2024/01/06 04:08:36;;;;;;;3.65;1.50;;;6.40;89.00;;;;;;4999902;28;20042;-63
2024/01/06 04:11:02;;;;;;;5.97;1.80;;;6.50;89.30;;;;;;5003497;28;20129;-61
2024/01/06 04:13:28;;;;;;;3.05;1.70;;;6.50;89.40;;;;;;5000902;28;20030;-63
2024/01/06 04:15:53;;;;;;;2.45;1.52;;;6.50;89.50;;;;;;5007141;28;20038;-63
2024/01/06 04:18:19;;;;;;;2.17;1.30;;;6.60;89.50;;;;;;5009035;28;20506;-63
2024/01/06 04:20:45;;;;;;;3.33;1.58;;;6.60;89.30;;;;;;5002851;28;20410;-63
2024/01/06 04:23:10;;;;;;;4.82;1.90;;;6.60;89.30;;;;;;5010625;28;20505;-62
2024/01/06 04:25:36;;;;;;;5.03;2.03;;;6.60;89.30;;;;;;5000847;28;20134;-63
2024/01/06 04:28:01;;;;;;;2.42;1.70;;;6.70;89.50;;;;;;5009819;28;20060;-62
2024/01/06 04:30:27;;;;;;;2.35;1.52;;;6.70;89.60;;;;;;5007490;28;20117;-63
2024/01/06 04:32:52;;;;;;;4.72;1.58;;;6.70;89.50;;;;;;5005370;28;20057;-64
2024/01/06 04:35:20;;;;;;;3.78;1.85;;;6.70;89.50;;;;;;5004058;28;20050;-63
2024/01/06 04:37:47;;;;;;;2.70;1.85;;;6.80;89.50;;;;;;5003272;28;20026;-62
2024/01/06 04:40:12;;;;;;;3.10;1.90;;;6.80;89.40;;;;;;5001528;28;20034;-63
2024/01/06 04:42:38;;;;;;;3.45;1.83;;;6.80;89.30;;;;;;5003684;28;20041;-63
2024/01/06 04:45:04;;;;;;;3.88;1.85;;;6.90;89.30;;;;;;5011317;28;20030;-62
2024/01/06 04:47:30;;;;;;;3.47;1.80;;;6.90;89.30;;;;;;5003310;28;20034;-63
2024/01/06 04:49:56;;;;;;;2.50;1.80;;;6.90;89.20;;;;;;5004896;28;20198;-63
2024/01/06 04:52:22;;;;;;;3.85;2.05;;;7.00;89.10;;;;;;5001801;28;20034;-63
2024/01/06 04:54:48;;;;;;;2.40;1.70;;;7.00;89.00;;;;;;5002382;28;20030;-63
2024/01/06 04:57:14;;;;;;;4.18;1.65;;;7.00;89.00;;;;;;5001622;28;20379;-63
2024/01/06 04:59:39;;;;;;;2.22;1.60;;;7.00;88.90;;;;;;5005228;28;20398;-62
2024/01/06 05:02:05;;;;;;;3.92;1.70;;;7.00;88.80;;;;;;5012299;28;20030;-62
2024/01/06 05:04:32;;;;;;;3.38;1.50;;;7.00;88.80;;;;;;5000674;28;20042;-63
2024/01/06 05:06:58;;;;;;;1.50;1.40;;;7.00;89.50;;;;;;5006326;28;20037;-63
2024/01/06 05:09:24;;;;;;;3.38;1.50;;;7.00;89.00;;;;;;4998712;28;20421;-63
2024/01/06 05:11:50;;;;;;;3.70;1.70;;;7.00;88.80;;;;;;5006544;28;20038;-63
2024/01/06 05:14:15;;;;;;;2.20;1.40;;;7.00;88.80;;;;;;5009875;28;20036;-63
2024/01/06 05:16:42;;;;;;;2.67;1.55;;;7.00;88.80;;;;;;4998564;28;20062;-63
2024/01/06 05:19:07;;;;;;;3.72;1.73;;;7.00;88.60;;;;;;5007422;28;20492;-64
2024/01/06 05:21:33;;;;;;;3.50;1.60;;;7.00;88.60;;;;;;5005909;28;20045;-63
2024/01/06 05:23:59;;;;;;;6.20;1.60;;;7.00;88.60;;;;;;5001224;28;20145;-63
2024/01/06 05:26:25;;;;;;;3.40;1.40;;;7.10;88.60;;;;;;5005063;28;20555;-63
2024/01/06 05:28:51;;;;;;;2.17;1.60;;;7.10;88.60;;;;;;5005468;28;20465;-63
2024/01/06 05:31:17;;;;;;;4.63;1.50;;;7.00;88.50;;;;;;5003816;28;20064;-63
2024/01/06 05:33:42;;;;;;;3.90;1.67;;;7.00;88.50;;;;;;5006450;28;20041;-63
2024/01/06 05:36:08;;;;;;;6.18;1.75;;;7.00;88.50;;;;;;5007631;28;20426;-64
2024/01/06 05:38:33;;;;;;;4.85;2.30;;;7.10;88.60;;;;;;5004381;28;20045;-64
2024/01/06 05:40:59;;;;;;;3.92;2.50;;;7.10;88.50;;;;;;5001320;28;20442;-63
2024/01/06 05:43:25;;;;;;;3.17;1.63;;;7.10;88.50;;;;;;5002855;28;20049;-63
2024/01/06 05:45:51;;;;;;;4.57;1.90;;;7.10;88.40;;;;;;5004416;28;20034;-63
2024/01/06 05:48:17;;;;;;;3.22;1.75;;;7.10;88.40;;;;;;5000614;28;20029;-63
2024/01/06 05:50:42;;;;;;;3.85;1.80;;;7.10;89.20;;;;;;5001783;28;20043;-63
2024/01/06 05:53:08;;;;;;;2.97;1.70;;;7.00;88.30;;;;;;5010439;28;20023;-63
2024/01/06 05:55:34;;;;;;;2.72;1.75;;;7.00;88.30;;;;;;5003282;28;20577;-63
2024/01/06 05:58:00;;;;;;;4.07;1.85;;;7.00;88.30;;;;;;5004141;28;20128;-63
2024/01/06 06:00:26;;;;;;;4.07;2.15;;;7.00;88.30;;;;;;4998873;28;20038;-63
2024/01/06 06:02:52;;;;;;;4.00;1.98;;;7.00;88.40;;;;;;5004541;28;20037;-63
2024/01/06 06:05:18;;;;;;;3.88;2.25;;;6.90;88.40;;;;;;5000236;28;20092;-63
2024/01/06 06:07:43;;;;;;;3.67;2.30;;;6.90;88.50;;;;;;5001251;28;20612;-64
2024/01/06 06:10:10;;;;;;;5.45;2.70;;;6.90;88.50;;;;;;5008626;28;20490;-63
2024/01/06 06:12:36;;;;;;;5.15;2.55;;;6.90;88.60;;;;;;4997849;28;20119;-62
2024/01/06 06:15:03;;;;;;;4.57;2.53;;;6.90;88.60;;;;;;4997181;28;20497;-63
2024/01/06 06:17:30;;;;;;;4.53;2.10;;;6.90;88.60;;;;;;5009552;28;20038;-63
2024/01/06 06:19:57;;;;;;;3.83;2.33;;;6.90;88.50;;;;;;4998358;28;20033;-63
2024/01/06 06:22:23;;;;;;;6.18;2.40;;;6.90;88.50;;;;;;4999403;28;20034;-63
2024/01/06 06:24:48;;;;;;;4.53;2.50;;;6.90;88.60;;;;;;5010628;28;20512;-63
2024/01/06 06:27:14;;;;;;;3.88;2.58;;;6.90;88.60;;;;;;5004645;28;20088;-61
2024/01/06 06:29:39;;;;;;;5.07;2.63;;;6.90;88.60;;;;;;4996560;28;20027;-63
2024/01/06 06:32:05;;;;;;;3.53;2.78;;;6.90;88.60;;;;;;5005514;28;20034;-63
2024/01/06 06:34:31;;;;;;;5.53;2.78;;;6.80;88.60;;;;;;5001630;28;20046;-62
2024/01/06 06:36:56;;;;;;;3.55;2.70;;;6.90;88.80;;;;;;5005061;28;20037;-62
2024/01/06 06:39:22;;;;;;;3.50;2.78;;;6.80;88.70;;;;;;5002539;28;20026;-63
2024/01/06 06:41:47;;;;;;;4.13;2.92;;;6.90;88.80;;;;;;5000543;28;20030;-62
2024/01/06 06:44:13;;;;;;;4.13;3.10;;;6.80;88.80;;;;;;5001552;28;20030;-62
2024/01/06 06:46:38;;;;;;;4.75;2.60;;;6.90;88.90;;;;;;4996573;28;20046;-62
2024/01/06 06:49:04;;;;;;;5.18;3.58;;;6.90;88.90;;;;;;5003884;28;20030;-61
2024/01/06 06:51:30;;;;;;;6.07;3.45;;;6.90;89.70;;;;;;5003282;28;20067;-62
2024/01/06 06:53:56;;;;;;;9.00;5.88;;;6.90;89.70;;;;;;5005260;28;20093;-62
2024/01/06 06:56:22;;;;;;;13.02;8.85;;;6.90;88.90;;;;;;5007952;28;20121;-61
2024/01/06 06:58:48;;;;;;;11.63;7.85;;;6.90;88.80;;;;;;5002945;28;20466;-63
2024/01/06 07:01:21;;;;;;;14.00;9.88;;;6.90;88.80;;;;;;5037053;28;20421;-63
2024/01/06 07:03:47;;;;;;;15.70;10.00;;;6.90;88.80;;;;;;5015340;28;20061;-63
2024/01/06 07:06:13;;;;;;;10.23;7.15;;;6.90;88.80;;;;;;5020580;28;20034;-63
2024/01/06 07:08:39;;;;;;;10.30;6.63;;;6.90;88.80;;;;;;5018527;28;20040;-63
2024/01/06 07:11:04;;;;;;;15.13;8.43;;;6.90;88.80;;;;;;5014678;28;20030;-62
2024/01/06 07:13:30;;;;;;;18.02;8.82;;;6.90;88.80;;;;;;5013519;28;20037;-62
2024/01/06 07:15:55;;;;;;;18.55;9.73;;;6.90;88.80;;;;;;5017324;28;20513;-63
2024/01/06 07:18:23;;;;;;;28.75;15.40;;;6.90;88.80;;;;;;5021380;28;20441;-61
2024/01/06 07:20:48;;;;;;;23.05;13.02;;;6.90;88.70;;;;;;5020766;28;20115;-62
2024/01/06 07:23:14;;;;;;;26.88;15.07;;;6.90;88.60;;;;;;5025025;28;20405;-62
2024/01/06 07:25:40;;;;;;;23.58;14.43;;;6.90;88.60;;;;;;5013729;28;20054;-63
2024/01/06 07:28:06;;;;;;;14.07;9.90;;;6.90;88.60;;;;;;5018856;28;20036;-63
2024/01/06 07:30:31;;;;;;;9.82;6.90;;;6.80;88.60;;;;;;5033971;28;20412;-63
2024/01/06 07:32:57;;;;;;;8.02;5.68;;;6.80;88.60;;;;;;5030991;28;20029;-63
2024/01/06 07:35:22;;;;;;;10.57;5.50;;;6.80;88.60;;;;;;5037355;28;20045;-64
2024/01/06 07:37:48;;;;;;;7.63;4.68;;;6.80;88.80;;;;;;5031438;28;20033;-64
2024/01/06 07:40:16;;;;;;;5.38;4.00;;;6.80;88.80;;;;;;5037849;28;20055;-63
2024/01/06 07:42:42;;;;;;;5.50;3.75;;;6.80;89.00;;;;;;5033877;28;20040;-63
2024/01/06 07:45:08;;;;;;;4.30;3.80;;;6.80;89.10;;;;;;5041214;28;20029;-63
2024/01/06 07:47:33;;;;;;;4.22;3.83;;;6.80;89.00;;;;;;5041584;28;20048;-63
2024/01/06 07:49:59;;;;;;;4.95;3.45;;;6.80;89.10;;;;;;5034090;28;20039;-63
2024/01/06 07:52:25;;;;;;;6.07;3.97;;;6.70;89.10;;;;;;5040654;28;20057;-63
2024/01/06 07:54:50;;;;;;;5.97;4.10;;;6.80;89.20;;;;;;5038039;28;20412;-63
2024/01/06 07:57:16;;;;;;;4.43;3.65;;;6.80;89.00;;;;;;5039017;28;20041;-62
2024/01/06 07:59:41;;;;;;;5.90;4.30;;;6.80;88.90;;;;;;5037133;28;20042;-63
2024/01/06 08:02:07;;;;;;;9.10;4.53;;;6.80;88.80;;;;;;5037115;28;20307;-63
2024/01/06 08:04:33;;;;;;;7.28;5.15;;;6.70;88.80;;;;;;5045692;28;20037;-63
2024/01/06 08:06:58;;;;;;;10.45;5.60;;;6.70;88.80;;;;;;5041344;28;20120;-63
2024/01/06 08:09:24;;;;;;;8.98;5.50;;;6.70;88.90;;;;;;5032374;28;20076;-63
2024/01/06 08:11:49;;;;;;;8.07;5.00;;;6.70;89.00;;;;;;5021067;28;20061;-61
2024/01/06 08:14:17;;;;;;;6.82;4.38;;;6.70;89.10;;;;;;5022662;28;20038;-62
2024/01/06 08:16:43;;;;;;;5.10;3.83;;;6.60;89.10;;;;;;5017768;28;20429;-63
2024/01/06 08:19:09;;;;;;;4.65;3.90;;;6.60;89.20;;;;;;5013696;28;20034;-63
2024/01/06 08:21:35;;;;;;;5.93;4.05;;;6.70;89.30;;;;;;5017860;28;20046;-62
2024/01/06 08:24:00;;;;;;;5.90;4.10;;;6.60;89.30;;;;;;5025388;28;20067;-64
2024/01/06 08:26:26;;;;;;;6.57;3.97;;;6.60;89.30;;;;;;5012823;28;20498;-63
2024/01/06 08:28:52;;;;;;;6.18;4.32;;;6.70;89.30;;;;;;5023444;28;20026;-63
2024/01/06 08:31:18;;;;;;;10.30;5.13;;;6.70;89.30;;;;;;5027820;28;20065;-64
2024/01/06 08:33:43;;;;;;;5.90;4.13;;;6.70;89.30;;;;;;5017388;28;20385;-63
2024/01/06 08:36:09;;;;;;;6.57;4.28;;;6.70;89.20;;;;;;5024676;28;20045;-63
2024/01/06 08:38:35;;;;;;;6.20;4.50;;;6.70;89.30;;;;;;5027069;28;20384;-64
2024/01/06 08:41:01;;;;;;;6.78;5.05;;;6.70;89.30;;;;;;5026556;28;20033;-64
2024/01/06 08:43:27;;;;;;;6.40;4.60;;;6.70;89.20;;;;;;5019658;28;20045;-64
2024/01/06 08:45:53;;;;;;;5.97;4.28;;;6.70;89.20;;;;;;5015146;28;20042;-63
2024/01/06 08:48:18;;;;;;;7.28;4.43;;;6.70;89.30;;;;;;5011649;28;20490;-64
2024/01/06 08:50:47;;;;;;;5.72;4.22;;;6.70;89.40;;;;;;5016420;28;20077;-63
2024/01/06 08:53:13;;;;;;;7.13;4.40;;;6.80;89.30;;;;;;5020583;28;20045;-63
2024/01/06 08:55:39;;;;;;;5.68;4.57;;;6.70;89.30;;;;;;5014730;28;20028;-63
2024/01/06 08:58:05;;;;;;;6.07;3.95;;;6.80;89.40;;;;;;5022617;28;20029;-61
2024/01/06 09:00:31;;;;;;;4.68;3.47;;;6.70;89.40;;;;;;5024551;28;20046;-64
2024/01/06 09:02:56;;;;;;;4.50;3.70;;;6.70;89.30;;;;;;5018371;28;20406;-63
2024/01/06 09:05:22;;;;;;;5.57;3.80;;;6.70;89.30;;;;;;5020583;28;20069;-63
2024/01/06 09:07:50;;;;;;;5.55;3.88;;;6.70;89.40;;;;;;5013957;28;20048;-63
2024/01/06 09:10:16;;;;;;;6.70;4.32;;;6.70;89.50;;;;;;5014260;28;20121;-63
2024/01/06 09:12:42;;;;;;;5.15;4.18;;;6.70;89.60;;;;;;5018625;28;20125;-63
2024/01/06 09:15:08;;;;;;;6.45;4.78;;;6.70;89.70;;;;;;5021346;28;20112;-63
2024/01/06 09:17:34;;;;;;;10.00;5.07;;;6.60;89.60;;;;;;5021196;28;20200;-62
2024/01/06 09:20:01;;;;;;;6.45;4.60;;;6.70;89.90;;;;;;5016860;28;20050;-64
2024/01/06 09:22:26;;;;;;;8.68;4.22;;;6.60;89.80;;;;;;5028340;28;20039;-64
2024/01/06 09:24:52;;;;;;;5.00;3.70;;;6.60;89.90;;;;;;5022388;28;20034;-63
2024/01/06 09:27:19;;;;;;;5.05;4.00;;;6.60;89.70;;;;;;5023182;28;20577;-63
2024/01/06 09:29:44;;;;;;;5.78;4.30;;;6.60;89.70;;;;;;5019048;28;20026;-63
2024/01/06 09:32:10;;;;;;;8.05;4.53;;;6.60;89.80;;;;;;5024719;28;20036;-64
2024/01/06 09:34:35;;;;;;;11.90;8.15;;;6.60;89.80;;;;;;5018470;28;20087;-63
2024/01/06 09:37:01;;;;;;;11.73;8.23;;;6.60;89.80;;;;;;5015391;28;20120;-63
2024/01/06 09:39:27;;;;;;;23.42;12.02;;;6.50;89.80;;;;;;5023180;28;20041;-63
2024/01/06 09:41:52;;;;;;;18.45;11.73;;;6.60;90.00;;;;;;5023900;28;20037;-63
2024/01/06 09:44:18;;;;;;;11.63;6.80;;;6.50;90.00;;;;;;5022712;28;20327;-63
2024/01/06 09:46:44;;;;;;;6.35;4.80;;;6.50;90.00;;;;;;5030182;28;20030;-63
2024/01/06 09:49:10;;;;;;;9.27;6.82;;;6.50;90.00;;;;;;5017640;28;20548;-64
2024/01/06 09:51:39;;;;;;;6.72;5.30;;;6.50;90.00;;;;;;5020087;28;20057;-63
2024/01/06 09:54:07;;;;;;;11.00;7.63;;;6.60;90.00;;;;;;5013068;28;20037;-63
2024/01/06 09:56:34;;;;;;;7.53;6.05;;;6.60;90.00;;;;;;5015881;28;20080;-62
2024/01/06 09:58:59;;;;;;;6.57;5.22;;;6.60;90.00;;;;;;5026878;28;20029;-63
2024/01/06 10:01:25;;;;;;;6.03;4.82;;;6.60;90.10;;;;;;5022244;28;20039;-63
2024/01/06 10:03:51;;;;;;;8.65;4.88;;;6.60;90.00;;;;;;5022897;28;20026;-63
2024/01/06 10:06:17;;;;;;;5.78;4.55;;;6.70;90.10;;;;;;5022119;28;20087;-63
2024/01/06 10:08:44;;;;;;;7.63;4.82;;;6.70;90.10;;;;;;5019446;28;20490;-63
2024/01/06 10:11:10;;;;;;;6.78;4.32;;;6.70;90.10;;;;;;5017431;28;20048;-63
2024/01/06 10:13:38;;;;;;;5.50;4.28;;;6.80;90.10;;;;;;5017804;28;20026;-63
2024/01/06 10:16:04;;;;;;;6.10;3.88;;;6.80;90.10;;;;;;5025107;28;20045;-63
2024/01/06 10:18:31;;;;;;;8.20;4.55;;;6.80;90.10;;;;;;5027382;28;20412;-63
2024/01/06 10:20:57;;;;;;;5.15;3.97;;;6.80;90.00;;;;;;5018020;28;20042;-63
2024/01/06 10:23:23;;;;;;;5.88;3.80;;;6.80;90.00;;;;;;5025521;28;20051;-63
2024/01/06 10:25:55;;;;;;;5.97;4.40;;;6.90;90.10;;;;;;5017979;28;20068;-65
2024/01/06 10:28:24;;;;;;;4.50;4.10;;;6.90;90.10;;;;;;5015939;28;20053;-63
2024/01/06 10:30:54;;;;;;;4.90;3.92;;;6.90;90.40;;;;;;5029026;28;20416;-61
2024/01/06 10:33:24;;;;;;;5.63;3.90;;;6.90;90.10;;;;;;5025119;28;20405;-63
2024/01/06 10:35:50;;;;;;;7.22;4.75;;;6.90;90.00;;;;;;5027696;28;20513;-64
2024/01/06 10:38:16;;;;;;;6.82;4.22;;;6.90;90.00;;;;;;5023752;28;20064;-63
2024/01/06 10:41:07;;;;;;;5.05;4.38;;;6.90;89.90;;;;;;5026334;28;20136;-63
2024/01/06 10:43:36;;;;;;;8.80;5.00;;;6.90;90.10;;;;;;5031441;28;20064;-63
2024/01/06 10:46:04;;;;;;;6.85;4.55;;;7.00;90.00;;;;;;5028098;28;20044;-63
2024/01/06 10:48:34;;;;;;;6.07;4.78;;;7.00;89.90;;;;;;5019886;28;20030;-63
2024/01/06 10:51:02;;;;;;;5.00;4.50;;;7.00;89.90;;;;;;5025778;28;20037;-62
2024/01/06 10:53:27;;;;;;;6.10;4.28;;;7.00;89.80;;;;;;5018946;28;20030;-63
2024/01/06 10:55:53;;;;;;;6.50;4.32;;;7.00;90.00;;;;;;5024594;28;20493;-64
2024/01/06 10:58:19;;;;;;;5.00;3.90;;;6.90;89.90;;;;;;5024308;28;20061;-63
2024/01/06 11:00:47;;;;;;;6.03;4.20;;;7.00;90.00;;;;;;5025258;28;20100;-63
2024/01/06 11:03:14;;;;;;;7.22;4.70;;;6.90;90.00;;;;;;5027578;28;20038;-63
2024/01/06 11:05:42;;;;;;;5.32;3.97;;;7.00;89.90;;;;;;5023530;28;20108;-63
2024/01/06 11:08:08;;;;;;;17.83;10.25;;;7.00;89.70;;;;;;5024737;28;20035;-63
2024/01/06 11:10:36;;;;;;;16.10;9.23;;;7.00;90.20;;;;;;5018551;28;20033;-63
2024/01/06 11:13:12;;;;;;;7.03;5.20;;;7.00;89.70;;;;;;5020310;28;20033;-63
2024/01/06 11:15:45;;;;;;;7.90;5.30;;;7.00;89.90;;;;;;5023954;28;20096;-63
2024/01/06 11:18:38;;;;;;;11.50;6.45;;;7.00;89.90;;;;;;5022971;28;20029;-63
2024/01/06 11:21:24;;;;;;;5.40;4.65;;;7.00;90.00;;;;;;5024149;28;20432;-63
2024/01/06 11:24:17;;;;;;;8.75;4.90;;;7.00;89.90;;;;;;5020799;28;20520;-63
2024/01/06 11:26:50;;;;;;;8.52;4.25;;;7.00;89.90;;;;;;5017529;28;20034;-63
2024/01/06 11:29:17;;;;;;;7.10;4.50;;;7.10;89.80;;;;;;5019442;28;20048;-63
2024/01/06 11:31:43;;;;;;;6.40;4.60;;;7.10;89.80;;;;;;5025930;28;20081;-63
2024/01/06 11:34:18;;;;;;;5.57;4.03;;;7.10;89.80;;;;;;5024824;28;20056;-63
2024/01/06 11:36:45;;;;;;;5.95;4.40;;;7.10;89.70;;;;;;5017672;28;20520;-63
2024/01/06 11:39:38;;;;;;;7.43;5.07;;;7.10;89.50;;;;;;5021525;28;20180;-63
2024/01/06 11:42:04;;;;;;;6.03;4.22;;;7.10;89.80;;;;;;5021923;28;20036;-63
2024/01/06 11:44:33;;;;;;;6.32;3.72;;;7.10;89.50;;;;;;5024809;28;20039;-63
2024/01/06 11:46:59;;;;;;;6.18;4.57;;;7.10;89.50;;;;;;5022980;28;21145;-63
2024/01/06 11:49:29;;;;;;;5.53;4.68;;;7.10;89.40;;;;;;5024233;28;20025;-63
2024/01/06 11:51:57;;;;;;;5.53;4.03;;;7.10;89.40;;;;;;5023502;28;20026;-61
2024/01/06 11:54:22;;;;;;;5.18;3.40;;;7.10;89.40;;;;;;5022025;28;20094;-63
2024/01/06 11:56:48;;;;;;;5.43;3.58;;;7.10;89.30;;;;;;5028792;28;20084;-63
2024/01/06 11:59:14;;;;;;;5.20;4.20;;;7.10;89.20;;;;;;5026641;28;20053;-62
2024/01/06 12:01:40;;;;;;;5.15;3.92;;;7.10;89.10;;;;;;5022370;28;20033;-63
2024/01/06 12:04:06;;;;;;;6.22;3.80;;;7.20;89.00;;;;;;5028735;28;20034;-63
2024/01/06 12:06:33;;;;;;;7.70;4.55;;;7.20;89.00;;;;;;5030191;28;20513;-61
2024/01/06 12:09:14;;;;;;;6.63;3.90;;;7.20;89.20;;;;;;5027748;28;20348;-63
2024/01/06 12:11:40;;;;;;;5.50;4.07;;;7.20;90.00;;;;;;5025933;28;20458;-63
2024/01/06 12:14:06;;;;;;;6.32;3.70;;;7.20;89.20;;;;;;5032509;28;20059;-62
2024/01/06 12:16:32;;;;;;;7.45;4.10;;;7.20;89.00;;;;;;5023700;28;20056;-63
2024/01/06 12:19:00;;;;;;;5.32;3.67;;;7.20;88.90;;;;;;5029316;28;20025;-63
2024/01/06 12:21:27;;;;;;;6.07;3.97;;;7.20;89.00;;;;;;5021709;28;20508;-63
2024/01/06 12:23:52;;;;;;;5.22;4.05;;;7.20;89.10;;;;;;5029561;28;20562;-61
2024/01/06 12:26:18;;;;;;;6.70;4.28;;;7.30;89.20;;;;;;5035323;28;20141;-63
2024/01/06 12:28:48;;;;;;;5.47;4.43;;;7.30;89.10;;;;;;5037058;28;20497;-63
2024/01/06 12:31:15;;;;;;;7.10;3.83;;;7.40;89.00;;;;;;5033487;28;20571;-63
2024/01/06 12:33:41;;;;;;;6.47;3.95;;;7.40;89.10;;;;;;5022467;28;20045;-63
2024/01/06 12:36:11;;;;;;;6.25;3.88;;;7.40;89.00;;;;;;5029962;28;20033;-63
2024/01/06 12:38:37;;;;;;;10.38;5.15;;;7.40;88.80;;;;;;5028221;28;20424;-63
2024/01/06 12:41:04;;;;;;;7.63;4.85;;;7.40;88.60;;;;;;5025130;28;20128;-63
2024/01/06 12:43:29;;;;;;;10.23;4.68;;;7.50;88.50;;;;;;5032152;28;20044;-63
2024/01/06 12:45:57;;;;;;;7.60;4.57;;;7.50;88.60;;;;;;5028866;28;20037;-63
2024/01/06 12:48:22;;;;;;;6.22;4.20;;;7.50;88.50;;;;;;5026754;28;20051;-63
2024/01/06 12:50:48;;;;;;;5.85;4.03;;;7.50;88.50;;;;;;5029692;28;20428;-63